sensor_id;sensor_type;location;lat;lon;timestamp;P1;durP1;ratioP1;P2;durP2;ratioP2
16922;SDS011;8578;50.938;13.556;2023-08-30T00:01:31;3.10;;;2.10;;
16922;SDS011;8578;50.938;13.556;2023-08-30T00:03:58;2.50;;;1.90;;
16922;SDS011;8578;50.938;13.556;2023-08-30T00:06:26;4.03;;;2.13;;
16922;SDS011;8578;50.938;13.556;2023-08-30T00:08:53;3.37;;;2.17;;
16922;SDS011;8578;50.938;13.556;2023-08-30T00:11:24;2.90;;;2.30;;
16922;SDS011;8578;50.938;13.556;2023-08-30T00:13:51;1.93;;;1.73;;
16922;SDS011;8578;50.938;13.556;2023-08-30T00:16:19;2.10;;;1.90;;
16922;SDS011;8578;50.938;13.556;2023-08-30T00:18:46;6.70;;;2.20;;
16922;SDS011;8578;50.938;13.556;2023-08-30T00:21:14;2.30;;;1.77;;
16922;SDS011;8578;50.938;13.556;2023-08-30T00:23:43;2.73;;;2.10;;
16922;SDS011;8578;50.938;13.556;2023-08-30T00:26:12;3.17;;;2.23;;
16922;SDS011;8578;50.938;13.556;2023-08-30T00:28:40;2.73;;;2.10;;
16922;SDS011;8578;50.938;13.556;2023-08-30T00:31:08;3.40;;;2.27;;
16922;SDS011;8578;50.938;13.556;2023-08-30T00:33:36;2.47;;;1.93;;
16922;SDS011;8578;50.938;13.556;2023-08-30T00:36:04;2.67;;;2.00;;
16922;SDS011;8578;50.938;13.556;2023-08-30T00:38:32;2.43;;;1.80;;
16922;SDS011;8578;50.938;13.556;2023-08-30T00:41:00;2.80;;;1.83;;
16922;SDS011;8578;50.938;13.556;2023-08-30T00:43:30;3.00;;;2.10;;
16922;SDS011;8578;50.938;13.556;2023-08-30T00:46:02;3.13;;;2.50;;
16922;SDS011;8578;50.938;13.556;2023-08-30T00:48:30;5.27;;;2.90;;
16922;SDS011;8578;50.938;13.556;2023-08-30T00:50:58;5.43;;;2.90;;
16922;SDS011;8578;50.938;13.556;2023-08-30T00:53:25;4.87;;;3.20;;
16922;SDS011;8578;50.938;13.556;2023-08-30T00:55:54;4.83;;;3.20;;
16922;SDS011;8578;50.938;13.556;2023-08-30T00:58:22;3.60;;;3.13;;
16922;SDS011;8578;50.938;13.556;2023-08-30T01:00:52;3.93;;;3.50;;
16922;SDS011;8578;50.938;13.556;2023-08-30T01:03:22;5.57;;;2.80;;
16922;SDS011;8578;50.938;13.556;2023-08-30T01:05:50;3.93;;;3.40;;
16922;SDS011;8578;50.938;13.556;2023-08-30T01:08:18;7.70;;;3.77;;
16922;SDS011;8578;50.938;13.556;2023-08-30T01:10:47;4.60;;;3.50;;
16922;SDS011;8578;50.938;13.556;2023-08-30T01:13:18;7.00;;;4.17;;
16922;SDS011;8578;50.938;13.556;2023-08-30T01:15:47;5.23;;;4.73;;
16922;SDS011;8578;50.938;13.556;2023-08-30T01:18:16;7.30;;;4.20;;
16922;SDS011;8578;50.938;13.556;2023-08-30T01:20:47;6.77;;;4.10;;
16922;SDS011;8578;50.938;13.556;2023-08-30T01:23:18;6.77;;;4.50;;
16922;SDS011;8578;50.938;13.556;2023-08-30T01:25:50;3.80;;;3.20;;
16922;SDS011;8578;50.938;13.556;2023-08-30T01:28:23;5.90;;;2.80;;
16922;SDS011;8578;50.938;13.556;2023-08-30T01:30:51;7.13;;;3.83;;
16922;SDS011;8578;50.938;13.556;2023-08-30T01:33:21;5.53;;;3.80;;
16922;SDS011;8578;50.938;13.556;2023-08-30T01:35:50;5.57;;;3.60;;
16922;SDS011;8578;50.938;13.556;2023-08-30T01:38:18;4.90;;;3.90;;
16922;SDS011;8578;50.938;13.556;2023-08-30T01:40:46;5.53;;;4.00;;
16922;SDS011;8578;50.938;13.556;2023-08-30T01:43:14;6.40;;;4.13;;
16922;SDS011;8578;50.938;13.556;2023-08-30T01:45:44;4.67;;;3.70;;
16922;SDS011;8578;50.938;13.556;2023-08-30T01:48:13;4.07;;;3.43;;
16922;SDS011;8578;50.938;13.556;2023-08-30T01:50:41;5.30;;;3.63;;
16922;SDS011;8578;50.938;13.556;2023-08-30T01:53:10;4.83;;;3.17;;
16922;SDS011;8578;50.938;13.556;2023-08-30T01:55:39;5.13;;;3.27;;
16922;SDS011;8578;50.938;13.556;2023-08-30T01:58:07;6.47;;;3.50;;
16922;SDS011;8578;50.938;13.556;2023-08-30T02:00:37;3.63;;;3.03;;
16922;SDS011;8578;50.938;13.556;2023-08-30T02:03:10;3.90;;;3.03;;
16922;SDS011;8578;50.938;13.556;2023-08-30T02:05:41;3.03;;;2.70;;
16922;SDS011;8578;50.938;13.556;2023-08-30T02:08:13;3.57;;;2.67;;
16922;SDS011;8578;50.938;13.556;2023-08-30T02:10:44;3.83;;;3.10;;
16922;SDS011;8578;50.938;13.556;2023-08-30T02:13:13;5.60;;;2.93;;
16922;SDS011;8578;50.938;13.556;2023-08-30T02:15:41;4.27;;;2.93;;
16922;SDS011;8578;50.938;13.556;2023-08-30T02:18:10;4.60;;;3.03;;
16922;SDS011;8578;50.938;13.556;2023-08-30T02:20:38;3.60;;;2.90;;
16922;SDS011;8578;50.938;13.556;2023-08-30T02:23:06;4.27;;;2.90;;
16922;SDS011;8578;50.938;13.556;2023-08-30T02:25:41;4.97;;;3.00;;
16922;SDS011;8578;50.938;13.556;2023-08-30T02:28:08;3.97;;;3.27;;
16922;SDS011;8578;50.938;13.556;2023-08-30T02:30:40;4.47;;;3.30;;
16922;SDS011;8578;50.938;13.556;2023-08-30T02:33:07;4.07;;;3.00;;
16922;SDS011;8578;50.938;13.556;2023-08-30T02:35:38;4.43;;;3.20;;
16922;SDS011;8578;50.938;13.556;2023-08-30T02:38:05;4.80;;;2.97;;
16922;SDS011;8578;50.938;13.556;2023-08-30T02:40:34;5.17;;;3.40;;
16922;SDS011;8578;50.938;13.556;2023-08-30T02:43:02;4.73;;;3.20;;
16922;SDS011;8578;50.938;13.556;2023-08-30T02:45:30;4.53;;;3.13;;
16922;SDS011;8578;50.938;13.556;2023-08-30T02:47:57;3.90;;;3.17;;
16922;SDS011;8578;50.938;13.556;2023-08-30T02:50:25;6.10;;;3.40;;
16922;SDS011;8578;50.938;13.556;2023-08-30T02:52:54;5.57;;;3.37;;
16922;SDS011;8578;50.938;13.556;2023-08-30T02:55:21;5.13;;;3.17;;
16922;SDS011;8578;50.938;13.556;2023-08-30T02:57:49;5.00;;;3.63;;
16922;SDS011;8578;50.938;13.556;2023-08-30T03:00:16;5.83;;;3.40;;
16922;SDS011;8578;50.938;13.556;2023-08-30T03:02:47;4.70;;;3.30;;
16922;SDS011;8578;50.938;13.556;2023-08-30T03:05:17;5.87;;;3.50;;
16922;SDS011;8578;50.938;13.556;2023-08-30T03:07:44;4.47;;;3.33;;
16922;SDS011;8578;50.938;13.556;2023-08-30T03:10:15;5.80;;;3.20;;
16922;SDS011;8578;50.938;13.556;2023-08-30T03:12:42;4.97;;;3.67;;
16922;SDS011;8578;50.938;13.556;2023-08-30T03:15:10;4.63;;;3.40;;
16922;SDS011;8578;50.938;13.556;2023-08-30T03:17:38;4.93;;;3.20;;
16922;SDS011;8578;50.938;13.556;2023-08-30T03:20:06;4.27;;;3.10;;
16922;SDS011;8578;50.938;13.556;2023-08-30T03:22:34;5.13;;;3.30;;
16922;SDS011;8578;50.938;13.556;2023-08-30T03:25:01;7.20;;;3.13;;
16922;SDS011;8578;50.938;13.556;2023-08-30T03:27:32;5.70;;;3.43;;
16922;SDS011;8578;50.938;13.556;2023-08-30T03:30:01;8.33;;;3.83;;
16922;SDS011;8578;50.938;13.556;2023-08-30T03:32:31;4.47;;;3.57;;
16922;SDS011;8578;50.938;13.556;2023-08-30T03:35:00;5.80;;;3.27;;
16922;SDS011;8578;50.938;13.556;2023-08-30T03:37:29;4.00;;;3.10;;
16922;SDS011;8578;50.938;13.556;2023-08-30T03:39:58;4.83;;;3.60;;
16922;SDS011;8578;50.938;13.556;2023-08-30T03:42:25;5.60;;;3.57;;
16922;SDS011;8578;50.938;13.556;2023-08-30T03:44:54;6.20;;;3.70;;
16922;SDS011;8578;50.938;13.556;2023-08-30T03:47:22;4.13;;;3.33;;
16922;SDS011;8578;50.938;13.556;2023-08-30T03:49:49;4.77;;;3.93;;
16922;SDS011;8578;50.938;13.556;2023-08-30T03:52:17;4.23;;;3.30;;
16922;SDS011;8578;50.938;13.556;2023-08-30T03:54:44;5.33;;;3.50;;
16922;SDS011;8578;50.938;13.556;2023-08-30T03:57:13;7.10;;;3.53;;
16922;SDS011;8578;50.938;13.556;2023-08-30T03:59:40;6.17;;;3.80;;
16922;SDS011;8578;50.938;13.556;2023-08-30T04:02:09;5.27;;;3.30;;
16922;SDS011;8578;50.938;13.556;2023-08-30T04:04:37;4.70;;;3.40;;
16922;SDS011;8578;50.938;13.556;2023-08-30T04:07:06;6.27;;;3.60;;
16922;SDS011;8578;50.938;13.556;2023-08-30T04:09:34;5.47;;;3.47;;
16922;SDS011;8578;50.938;13.556;2023-08-30T04:12:03;4.33;;;3.23;;
16922;SDS011;8578;50.938;13.556;2023-08-30T04:14:31;3.90;;;3.10;;
16922;SDS011;8578;50.938;13.556;2023-08-30T04:16:59;6.43;;;3.13;;
16922;SDS011;8578;50.938;13.556;2023-08-30T04:19:28;3.80;;;3.30;;
16922;SDS011;8578;50.938;13.556;2023-08-30T04:21:55;5.43;;;3.47;;
16922;SDS011;8578;50.938;13.556;2023-08-30T04:24:23;4.23;;;3.50;;
16922;SDS011;8578;50.938;13.556;2023-08-30T04:26:51;6.40;;;3.63;;
16922;SDS011;8578;50.938;13.556;2023-08-30T04:29:20;5.23;;;3.80;;
16922;SDS011;8578;50.938;13.556;2023-08-30T04:31:49;4.40;;;3.70;;
16922;SDS011;8578;50.938;13.556;2023-08-30T04:34:17;7.87;;;3.37;;
16922;SDS011;8578;50.938;13.556;2023-08-30T04:36:48;5.30;;;3.63;;
16922;SDS011;8578;50.938;13.556;2023-08-30T04:39:16;4.87;;;3.60;;
16922;SDS011;8578;50.938;13.556;2023-08-30T04:41:43;4.50;;;3.40;;
16922;SDS011;8578;50.938;13.556;2023-08-30T04:44:12;5.20;;;3.87;;
16922;SDS011;8578;50.938;13.556;2023-08-30T04:46:39;5.30;;;3.70;;
16922;SDS011;8578;50.938;13.556;2023-08-30T04:49:07;4.73;;;3.57;;
16922;SDS011;8578;50.938;13.556;2023-08-30T04:51:35;4.53;;;3.57;;
16922;SDS011;8578;50.938;13.556;2023-08-30T04:54:04;4.47;;;3.40;;
16922;SDS011;8578;50.938;13.556;2023-08-30T04:56:31;5.27;;;3.53;;
16922;SDS011;8578;50.938;13.556;2023-08-30T04:58:59;5.03;;;3.50;;
16922;SDS011;8578;50.938;13.556;2023-08-30T05:01:30;5.57;;;3.63;;
16922;SDS011;8578;50.938;13.556;2023-08-30T05:03:59;4.47;;;3.33;;
16922;SDS011;8578;50.938;13.556;2023-08-30T05:06:27;5.43;;;3.43;;
16922;SDS011;8578;50.938;13.556;2023-08-30T05:08:54;4.60;;;3.33;;
16922;SDS011;8578;50.938;13.556;2023-08-30T05:11:24;4.37;;;3.40;;
16922;SDS011;8578;50.938;13.556;2023-08-30T05:13:52;3.90;;;3.20;;
16922;SDS011;8578;50.938;13.556;2023-08-30T05:16:20;3.93;;;3.00;;
16922;SDS011;8578;50.938;13.556;2023-08-30T05:18:49;5.77;;;3.10;;
16922;SDS011;8578;50.938;13.556;2023-08-30T05:21:17;5.50;;;3.10;;
16922;SDS011;8578;50.938;13.556;2023-08-30T05:23:45;4.80;;;3.27;;
16922;SDS011;8578;50.938;13.556;2023-08-30T05:26:13;5.43;;;3.90;;
16922;SDS011;8578;50.938;13.556;2023-08-30T05:28:42;4.80;;;4.00;;
16922;SDS011;8578;50.938;13.556;2023-08-30T05:31:10;6.77;;;4.50;;
16922;SDS011;8578;50.938;13.556;2023-08-30T05:33:57;8.10;;;5.13;;
16922;SDS011;8578;50.938;13.556;2023-08-30T05:37:03;8.27;;;5.63;;
16922;SDS011;8578;50.938;13.556;2023-08-30T05:39:54;9.17;;;5.43;;
16922;SDS011;8578;50.938;13.556;2023-08-30T05:42:22;8.67;;;6.30;;
16922;SDS011;8578;50.938;13.556;2023-08-30T05:44:51;9.43;;;6.47;;
16922;SDS011;8578;50.938;13.556;2023-08-30T05:47:18;9.07;;;6.23;;
16922;SDS011;8578;50.938;13.556;2023-08-30T05:49:46;8.67;;;6.73;;
16922;SDS011;8578;50.938;13.556;2023-08-30T05:52:15;11.30;;;6.97;;
16922;SDS011;8578;50.938;13.556;2023-08-30T05:54:44;8.57;;;6.77;;
16922;SDS011;8578;50.938;13.556;2023-08-30T05:57:13;9.67;;;6.67;;
16922;SDS011;8578;50.938;13.556;2023-08-30T05:59:42;9.10;;;6.90;;
16922;SDS011;8578;50.938;13.556;2023-08-30T06:02:11;9.70;;;6.93;;
16922;SDS011;8578;50.938;13.556;2023-08-30T06:04:39;10.03;;;7.07;;
16922;SDS011;8578;50.938;13.556;2023-08-30T06:07:08;9.10;;;6.43;;
16922;SDS011;8578;50.938;13.556;2023-08-30T06:09:35;9.97;;;7.47;;
16922;SDS011;8578;50.938;13.556;2023-08-30T06:12:03;11.03;;;7.17;;
16922;SDS011;8578;50.938;13.556;2023-08-30T06:14:30;9.40;;;7.33;;
16922;SDS011;8578;50.938;13.556;2023-08-30T06:16:59;10.53;;;7.60;;
16922;SDS011;8578;50.938;13.556;2023-08-30T06:19:28;10.87;;;7.57;;
16922;SDS011;8578;50.938;13.556;2023-08-30T06:21:56;10.00;;;8.00;;
16922;SDS011;8578;50.938;13.556;2023-08-30T06:24:24;13.37;;;7.87;;
16922;SDS011;8578;50.938;13.556;2023-08-30T06:26:52;12.40;;;7.93;;
16922;SDS011;8578;50.938;13.556;2023-08-30T06:29:19;10.70;;;8.27;;
16922;SDS011;8578;50.938;13.556;2023-08-30T06:31:47;10.97;;;8.20;;
16922;SDS011;8578;50.938;13.556;2023-08-30T06:34:14;15.80;;;9.27;;
16922;SDS011;8578;50.938;13.556;2023-08-30T06:36:44;13.13;;;8.37;;
16922;SDS011;8578;50.938;13.556;2023-08-30T06:39:11;17.60;;;9.10;;
16922;SDS011;8578;50.938;13.556;2023-08-30T06:41:39;12.20;;;9.07;;
16922;SDS011;8578;50.938;13.556;2023-08-30T06:44:06;16.83;;;10.43;;
16922;SDS011;8578;50.938;13.556;2023-08-30T06:46:34;14.40;;;11.13;;
16922;SDS011;8578;50.938;13.556;2023-08-30T06:49:04;15.30;;;9.83;;
16922;SDS011;8578;50.938;13.556;2023-08-30T06:51:32;17.93;;;10.63;;
16922;SDS011;8578;50.938;13.556;2023-08-30T06:54:02;15.37;;;10.97;;
16922;SDS011;8578;50.938;13.556;2023-08-30T06:56:29;14.07;;;9.73;;
16922;SDS011;8578;50.938;13.556;2023-08-30T06:58:57;13.77;;;9.80;;
16922;SDS011;8578;50.938;13.556;2023-08-30T07:01:24;11.33;;;8.97;;
16922;SDS011;8578;50.938;13.556;2023-08-30T07:03:52;11.70;;;8.93;;
16922;SDS011;8578;50.938;13.556;2023-08-30T07:06:20;9.50;;;7.63;;
16922;SDS011;8578;50.938;13.556;2023-08-30T07:08:48;10.80;;;8.90;;
16922;SDS011;8578;50.938;13.556;2023-08-30T07:11:17;11.17;;;8.13;;
16922;SDS011;8578;50.938;13.556;2023-08-30T07:14:00;9.57;;;7.17;;
16922;SDS011;8578;50.938;13.556;2023-08-30T07:16:27;11.10;;;7.13;;
16922;SDS011;8578;50.938;13.556;2023-08-30T07:18:56;8.23;;;7.17;;
16922;SDS011;8578;50.938;13.556;2023-08-30T07:21:23;9.43;;;7.23;;
16922;SDS011;8578;50.938;13.556;2023-08-30T07:23:51;10.13;;;7.20;;
16922;SDS011;8578;50.938;13.556;2023-08-30T07:26:20;9.37;;;6.67;;
16922;SDS011;8578;50.938;13.556;2023-08-30T07:28:48;8.30;;;6.17;;
16922;SDS011;8578;50.938;13.556;2023-08-30T07:31:16;7.57;;;5.93;;
16922;SDS011;8578;50.938;13.556;2023-08-30T07:33:46;9.23;;;6.50;;
16922;SDS011;8578;50.938;13.556;2023-08-30T07:36:13;6.93;;;5.30;;
16922;SDS011;8578;50.938;13.556;2023-08-30T07:38:41;7.03;;;5.80;;
16922;SDS011;8578;50.938;13.556;2023-08-30T07:41:09;8.67;;;5.53;;
16922;SDS011;8578;50.938;13.556;2023-08-30T07:43:39;8.40;;;5.63;;
16922;SDS011;8578;50.938;13.556;2023-08-30T07:46:07;7.10;;;6.13;;
16922;SDS011;8578;50.938;13.556;2023-08-30T07:48:35;8.20;;;6.13;;
16922;SDS011;8578;50.938;13.556;2023-08-30T07:51:03;8.37;;;6.37;;
16922;SDS011;8578;50.938;13.556;2023-08-30T07:53:31;11.00;;;7.37;;
16922;SDS011;8578;50.938;13.556;2023-08-30T07:55:59;10.20;;;7.13;;
16922;SDS011;8578;50.938;13.556;2023-08-30T07:58:26;9.53;;;7.33;;
16922;SDS011;8578;50.938;13.556;2023-08-30T08:00:55;10.47;;;7.17;;
16922;SDS011;8578;50.938;13.556;2023-08-30T08:03:23;9.90;;;7.47;;
16922;SDS011;8578;50.938;13.556;2023-08-30T08:05:51;8.27;;;7.27;;
16922;SDS011;8578;50.938;13.556;2023-08-30T08:08:18;9.23;;;7.63;;
16922;SDS011;8578;50.938;13.556;2023-08-30T08:10:46;15.77;;;7.80;;
16922;SDS011;8578;50.938;13.556;2023-08-30T08:13:13;9.33;;;7.20;;
16922;SDS011;8578;50.938;13.556;2023-08-30T08:15:42;8.20;;;6.00;;
16922;SDS011;8578;50.938;13.556;2023-08-30T08:18:12;8.43;;;6.47;;
16922;SDS011;8578;50.938;13.556;2023-08-30T08:20:39;8.40;;;7.10;;
16922;SDS011;8578;50.938;13.556;2023-08-30T08:23:07;8.70;;;6.67;;
16922;SDS011;8578;50.938;13.556;2023-08-30T08:25:35;9.80;;;6.63;;
16922;SDS011;8578;50.938;13.556;2023-08-30T08:28:03;7.60;;;6.20;;
16922;SDS011;8578;50.938;13.556;2023-08-30T08:30:31;8.43;;;6.60;;
16922;SDS011;8578;50.938;13.556;2023-08-30T08:32:59;7.73;;;6.43;;
16922;SDS011;8578;50.938;13.556;2023-08-30T08:35:28;8.77;;;6.30;;
16922;SDS011;8578;50.938;13.556;2023-08-30T08:37:56;7.93;;;6.47;;
16922;SDS011;8578;50.938;13.556;2023-08-30T08:40:23;7.70;;;6.37;;
16922;SDS011;8578;50.938;13.556;2023-08-30T08:43:08;8.17;;;6.23;;
16922;SDS011;8578;50.938;13.556;2023-08-30T08:45:37;7.33;;;6.03;;
16922;SDS011;8578;50.938;13.556;2023-08-30T08:48:05;7.27;;;5.80;;
16922;SDS011;8578;50.938;13.556;2023-08-30T08:50:35;7.03;;;6.33;;
16922;SDS011;8578;50.938;13.556;2023-08-30T08:53:04;7.43;;;5.83;;
16922;SDS011;8578;50.938;13.556;2023-08-30T08:55:31;8.17;;;5.80;;
16922;SDS011;8578;50.938;13.556;2023-08-30T08:58:01;7.43;;;5.97;;
16922;SDS011;8578;50.938;13.556;2023-08-30T09:00:30;11.33;;;5.80;;
16922;SDS011;8578;50.938;13.556;2023-08-30T09:02:58;8.37;;;5.40;;
16922;SDS011;8578;50.938;13.556;2023-08-30T09:05:25;7.03;;;5.43;;
16922;SDS011;8578;50.938;13.556;2023-08-30T09:07:56;5.80;;;5.20;;
16922;SDS011;8578;50.938;13.556;2023-08-30T09:10:23;6.77;;;5.00;;
16922;SDS011;8578;50.938;13.556;2023-08-30T09:12:51;7.93;;;4.93;;
16922;SDS011;8578;50.938;13.556;2023-08-30T09:15:19;6.77;;;4.67;;
16922;SDS011;8578;50.938;13.556;2023-08-30T09:17:48;7.30;;;5.10;;
16922;SDS011;8578;50.938;13.556;2023-08-30T09:20:16;6.53;;;4.70;;
16922;SDS011;8578;50.938;13.556;2023-08-30T09:22:46;6.70;;;4.73;;
16922;SDS011;8578;50.938;13.556;2023-08-30T09:25:23;5.10;;;4.17;;
16922;SDS011;8578;50.938;13.556;2023-08-30T09:27:56;7.87;;;4.23;;
16922;SDS011;8578;50.938;13.556;2023-08-30T09:30:25;5.70;;;3.83;;
16922;SDS011;8578;50.938;13.556;2023-08-30T09:32:52;6.40;;;3.90;;
16922;SDS011;8578;50.938;13.556;2023-08-30T09:35:21;4.47;;;3.90;;
16922;SDS011;8578;50.938;13.556;2023-08-30T09:37:49;4.70;;;3.80;;
16922;SDS011;8578;50.938;13.556;2023-08-30T09:40:18;6.43;;;3.43;;
16922;SDS011;8578;50.938;13.556;2023-08-30T09:42:47;4.47;;;3.50;;
16922;SDS011;8578;50.938;13.556;2023-08-30T09:45:32;6.27;;;3.30;;
16922;SDS011;8578;50.938;13.556;2023-08-30T09:48:00;3.93;;;2.77;;
16922;SDS011;8578;50.938;13.556;2023-08-30T09:50:29;4.43;;;2.63;;
16922;SDS011;8578;50.938;13.556;2023-08-30T09:53:02;3.20;;;2.70;;
16922;SDS011;8578;50.938;13.556;2023-08-30T09:55:31;2.83;;;2.40;;
16922;SDS011;8578;50.938;13.556;2023-08-30T09:58:00;4.00;;;2.70;;
16922;SDS011;8578;50.938;13.556;2023-08-30T10:00:28;3.30;;;2.40;;
16922;SDS011;8578;50.938;13.556;2023-08-30T10:02:57;4.30;;;2.33;;
16922;SDS011;8578;50.938;13.556;2023-08-30T10:05:45;3.13;;;2.40;;
16922;SDS011;8578;50.938;13.556;2023-08-30T10:08:13;4.57;;;2.17;;
16922;SDS011;8578;50.938;13.556;2023-08-30T10:10:41;5.77;;;2.20;;
16922;SDS011;8578;50.938;13.556;2023-08-30T10:13:11;2.60;;;1.90;;
16922;SDS011;8578;50.938;13.556;2023-08-30T10:15:41;2.63;;;1.90;;
16922;SDS011;8578;50.938;13.556;2023-08-30T10:18:10;3.27;;;2.27;;
16922;SDS011;8578;50.938;13.556;2023-08-30T10:20:38;2.30;;;1.80;;
16922;SDS011;8578;50.938;13.556;2023-08-30T10:23:07;4.80;;;1.60;;
16922;SDS011;8578;50.938;13.556;2023-08-30T10:25:35;2.80;;;1.80;;
16922;SDS011;8578;50.938;13.556;2023-08-30T10:28:04;5.23;;;1.77;;
16922;SDS011;8578;50.938;13.556;2023-08-30T10:30:33;3.97;;;1.87;;
16922;SDS011;8578;50.938;13.556;2023-08-30T10:33:01;4.77;;;1.97;;
16922;SDS011;8578;50.938;13.556;2023-08-30T10:35:29;2.20;;;1.53;;
16922;SDS011;8578;50.938;13.556;2023-08-30T10:37:57;2.17;;;1.63;;
16922;SDS011;8578;50.938;13.556;2023-08-30T10:40:26;3.47;;;1.70;;
16922;SDS011;8578;50.938;13.556;2023-08-30T10:43:00;1.67;;;1.40;;
16922;SDS011;8578;50.938;13.556;2023-08-30T10:45:28;1.73;;;1.47;;
16922;SDS011;8578;50.938;13.556;2023-08-30T10:47:58;1.80;;;1.70;;
16922;SDS011;8578;50.938;13.556;2023-08-30T10:50:28;2.50;;;1.60;;
16922;SDS011;8578;50.938;13.556;2023-08-30T10:52:55;4.03;;;1.97;;
16922;SDS011;8578;50.938;13.556;2023-08-30T10:55:24;2.03;;;1.70;;
16922;SDS011;8578;50.938;13.556;2023-08-30T10:57:59;2.03;;;1.83;;
16922;SDS011;8578;50.938;13.556;2023-08-30T11:00:27;2.93;;;1.80;;
16922;SDS011;8578;50.938;13.556;2023-08-30T11:02:55;2.10;;;1.90;;
16922;SDS011;8578;50.938;13.556;2023-08-30T11:05:24;2.63;;;2.13;;
16922;SDS011;8578;50.938;13.556;2023-08-30T11:07:52;3.57;;;2.00;;
16922;SDS011;8578;50.938;13.556;2023-08-30T11:10:21;2.83;;;1.77;;
16922;SDS011;8578;50.938;13.556;2023-08-30T11:12:48;2.97;;;1.80;;
16922;SDS011;8578;50.938;13.556;2023-08-30T11:15:18;3.13;;;1.60;;
16922;SDS011;8578;50.938;13.556;2023-08-30T11:17:47;2.80;;;1.77;;
16922;SDS011;8578;50.938;13.556;2023-08-30T11:20:15;2.03;;;1.43;;
16922;SDS011;8578;50.938;13.556;2023-08-30T11:22:47;2.27;;;1.60;;
16922;SDS011;8578;50.938;13.556;2023-08-30T11:25:16;1.80;;;1.70;;
16922;SDS011;8578;50.938;13.556;2023-08-30T11:27:44;1.63;;;1.43;;
16922;SDS011;8578;50.938;13.556;2023-08-30T11:30:12;1.60;;;1.30;;
16922;SDS011;8578;50.938;13.556;2023-08-30T11:32:41;3.40;;;1.50;;
16922;SDS011;8578;50.938;13.556;2023-08-30T11:35:11;2.60;;;1.40;;
16922;SDS011;8578;50.938;13.556;2023-08-30T11:37:39;1.93;;;1.20;;
16922;SDS011;8578;50.938;13.556;2023-08-30T11:40:09;2.30;;;1.10;;
16922;SDS011;8578;50.938;13.556;2023-08-30T11:42:38;1.60;;;1.03;;
16922;SDS011;8578;50.938;13.556;2023-08-30T11:45:07;2.17;;;1.20;;
16922;SDS011;8578;50.938;13.556;2023-08-30T11:47:35;1.73;;;1.13;;
16922;SDS011;8578;50.938;13.556;2023-08-30T11:50:04;1.60;;;1.10;;
16922;SDS011;8578;50.938;13.556;2023-08-30T11:52:33;2.43;;;1.03;;
16922;SDS011;8578;50.938;13.556;2023-08-30T11:55:02;1.60;;;1.10;;
16922;SDS011;8578;50.938;13.556;2023-08-30T11:57:33;1.37;;;1.00;;
16922;SDS011;8578;50.938;13.556;2023-08-30T12:00:09;1.63;;;1.10;;
16922;SDS011;8578;50.938;13.556;2023-08-30T12:02:37;1.33;;;1.10;;
16922;SDS011;8578;50.938;13.556;2023-08-30T12:05:05;1.07;;;0.90;;
16922;SDS011;8578;50.938;13.556;2023-08-30T12:07:33;1.40;;;1.00;;
16922;SDS011;8578;50.938;13.556;2023-08-30T12:10:04;4.17;;;1.30;;
16922;SDS011;8578;50.938;13.556;2023-08-30T12:12:34;1.63;;;0.90;;
16922;SDS011;8578;50.938;13.556;2023-08-30T12:15:07;1.00;;;0.90;;
16922;SDS011;8578;50.938;13.556;2023-08-30T12:17:34;2.43;;;1.30;;
16922;SDS011;8578;50.938;13.556;2023-08-30T12:20:03;1.53;;;1.03;;
16922;SDS011;8578;50.938;13.556;2023-08-30T12:22:35;2.27;;;1.10;;
16922;SDS011;8578;50.938;13.556;2023-08-30T12:25:04;1.23;;;1.10;;
16922;SDS011;8578;50.938;13.556;2023-08-30T12:27:31;1.23;;;1.10;;
16922;SDS011;8578;50.938;13.556;2023-08-30T12:30:00;2.40;;;1.20;;
16922;SDS011;8578;50.938;13.556;2023-08-30T12:32:28;1.30;;;1.20;;
16922;SDS011;8578;50.938;13.556;2023-08-30T12:34:55;3.10;;;1.20;;
16922;SDS011;8578;50.938;13.556;2023-08-30T12:37:24;1.33;;;1.23;;
16922;SDS011;8578;50.938;13.556;2023-08-30T12:39:52;1.37;;;1.03;;
16922;SDS011;8578;50.938;13.556;2023-08-30T12:42:20;1.37;;;1.27;;
16922;SDS011;8578;50.938;13.556;2023-08-30T12:44:48;1.50;;;1.40;;
16922;SDS011;8578;50.938;13.556;2023-08-30T12:47:17;2.13;;;1.50;;
16922;SDS011;8578;50.938;13.556;2023-08-30T12:49:44;2.83;;;1.50;;
16922;SDS011;8578;50.938;13.556;2023-08-30T12:52:12;1.80;;;1.37;;
16922;SDS011;8578;50.938;13.556;2023-08-30T12:54:42;2.03;;;1.60;;
16922;SDS011;8578;50.938;13.556;2023-08-30T12:57:10;2.53;;;1.30;;
16922;SDS011;8578;50.938;13.556;2023-08-30T12:59:38;1.93;;;1.37;;
16922;SDS011;8578;50.938;13.556;2023-08-30T13:02:06;2.13;;;1.53;;
16922;SDS011;8578;50.938;13.556;2023-08-30T13:04:36;4.13;;;1.70;;
16922;SDS011;8578;50.938;13.556;2023-08-30T13:07:04;1.60;;;1.20;;
16922;SDS011;8578;50.938;13.556;2023-08-30T13:09:32;3.87;;;1.77;;
16922;SDS011;8578;50.938;13.556;2023-08-30T13:11:59;1.50;;;1.40;;
16922;SDS011;8578;50.938;13.556;2023-08-30T13:14:27;1.40;;;1.30;;
16922;SDS011;8578;50.938;13.556;2023-08-30T13:16:54;1.80;;;1.30;;
16922;SDS011;8578;50.938;13.556;2023-08-30T13:19:23;1.70;;;1.30;;
16922;SDS011;8578;50.938;13.556;2023-08-30T13:21:51;2.00;;;1.10;;
16922;SDS011;8578;50.938;13.556;2023-08-30T13:24:19;1.67;;;1.13;;
16922;SDS011;8578;50.938;13.556;2023-08-30T13:26:47;2.30;;;1.43;;
16922;SDS011;8578;50.938;13.556;2023-08-30T13:29:15;2.13;;;1.33;;
16922;SDS011;8578;50.938;13.556;2023-08-30T13:31:42;1.87;;;1.27;;
16922;SDS011;8578;50.938;13.556;2023-08-30T13:34:10;1.93;;;1.20;;
16922;SDS011;8578;50.938;13.556;2023-08-30T13:36:38;1.40;;;1.30;;
16922;SDS011;8578;50.938;13.556;2023-08-30T13:39:07;3.33;;;1.10;;
16922;SDS011;8578;50.938;13.556;2023-08-30T13:41:35;2.40;;;1.30;;
16922;SDS011;8578;50.938;13.556;2023-08-30T13:44:03;2.90;;;1.37;;
16922;SDS011;8578;50.938;13.556;2023-08-30T13:46:31;1.43;;;1.20;;
16922;SDS011;8578;50.938;13.556;2023-08-30T13:48:58;2.20;;;1.30;;
16922;SDS011;8578;50.938;13.556;2023-08-30T13:51:26;1.83;;;1.40;;
16922;SDS011;8578;50.938;13.556;2023-08-30T13:53:54;1.60;;;1.20;;
16922;SDS011;8578;50.938;13.556;2023-08-30T13:56:24;2.03;;;1.33;;
16922;SDS011;8578;50.938;13.556;2023-08-30T13:58:55;1.73;;;1.40;;
16922;SDS011;8578;50.938;13.556;2023-08-30T14:01:22;3.23;;;1.23;;
16922;SDS011;8578;50.938;13.556;2023-08-30T14:03:50;2.27;;;0.93;;
16922;SDS011;8578;50.938;13.556;2023-08-30T14:06:17;1.67;;;1.37;;
16922;SDS011;8578;50.938;13.556;2023-08-30T14:08:45;1.67;;;1.03;;
16922;SDS011;8578;50.938;13.556;2023-08-30T14:11:13;3.40;;;1.10;;
16922;SDS011;8578;50.938;13.556;2023-08-30T14:13:43;1.23;;;1.13;;
16922;SDS011;8578;50.938;13.556;2023-08-30T14:16:12;2.13;;;1.10;;
16922;SDS011;8578;50.938;13.556;2023-08-30T14:18:39;1.30;;;1.20;;
16922;SDS011;8578;50.938;13.556;2023-08-30T14:21:07;1.93;;;1.20;;
16922;SDS011;8578;50.938;13.556;2023-08-30T14:23:36;1.87;;;1.00;;
16922;SDS011;8578;50.938;13.556;2023-08-30T14:26:04;2.07;;;1.40;;
16922;SDS011;8578;50.938;13.556;2023-08-30T14:28:35;1.17;;;1.03;;
16922;SDS011;8578;50.938;13.556;2023-08-30T14:31:06;1.93;;;1.10;;
16922;SDS011;8578;50.938;13.556;2023-08-30T14:33:34;3.13;;;1.30;;
16922;SDS011;8578;50.938;13.556;2023-08-30T14:36:01;1.47;;;1.00;;
16922;SDS011;8578;50.938;13.556;2023-08-30T14:38:29;2.73;;;1.07;;
16922;SDS011;8578;50.938;13.556;2023-08-30T14:40:58;1.87;;;0.90;;
16922;SDS011;8578;50.938;13.556;2023-08-30T14:43:26;1.17;;;0.80;;
16922;SDS011;8578;50.938;13.556;2023-08-30T14:45:58;1.73;;;1.20;;
16922;SDS011;8578;50.938;13.556;2023-08-30T14:48:37;2.30;;;0.90;;
16922;SDS011;8578;50.938;13.556;2023-08-30T14:51:05;1.07;;;0.90;;
16922;SDS011;8578;50.938;13.556;2023-08-30T14:53:33;2.43;;;1.07;;
16922;SDS011;8578;50.938;13.556;2023-08-30T14:56:01;1.23;;;0.90;;